sensor_id;sensor_type;location;lat;lon;timestamp;temperature;humidity
22194;DHT22;11262;50.308;9.270;2022-12-29T00:02:04;9.90;99.90
22194;DHT22;11262;50.308;9.270;2022-12-29T00:04:30;9.90;99.90
22194;DHT22;11262;50.308;9.270;2022-12-29T00:09:26;9.90;99.90
22194;DHT22;11262;50.308;9.270;2022-12-29T00:11:52;9.90;99.90
22194;DHT22;11262;50.308;9.270;2022-12-29T00:14:18;9.80;99.90
22194;DHT22;11262;50.308;9.270;2022-12-29T00:17:02;9.90;99.90
22194;DHT22;11262;50.308;9.270;2022-12-29T00:19:28;9.90;99.90
22194;DHT22;11262;50.308;9.270;2022-12-29T00:22:13;9.90;99.90
22194;DHT22;11262;50.308;9.270;2022-12-29T00:24:58;9.90;99.90
22194;DHT22;11262;50.308;9.270;2022-12-29T00:27:28;9.90;99.90
22194;DHT22;11262;50.308;9.270;2022-12-29T00:30:15;9.90;99.90
22194;DHT22;11262;50.308;9.270;2022-12-29T00:33:00;10.00;99.90
22194;DHT22;11262;50.308;9.270;2022-12-29T00:35:50;10.00;99.90
22194;DHT22;11262;50.308;9.270;2022-12-29T00:38:18;10.00;99.90
22194;DHT22;11262;50.308;9.270;2022-12-29T00:41:02;10.00;99.90
22194;DHT22;11262;50.308;9.270;2022-12-29T00:43:46;10.10;99.90
22194;DHT22;11262;50.308;9.270;2022-12-29T00:46:30;10.10;99.90
22194;DHT22;11262;50.308;9.270;2022-12-29T00:48:56;10.10;99.90
22194;DHT22;11262;50.308;9.270;2022-12-29T00:51:41;10.10;99.90
22194;DHT22;11262;50.308;9.270;2022-12-29T00:54:06;10.10;99.90
22194;DHT22;11262;50.308;9.270;2022-12-29T00:56:32;10.10;99.90
22194;DHT22;11262;50.308;9.270;2022-12-29T00:59:01;10.10;99.90
22194;DHT22;11262;50.308;9.270;2022-12-29T01:01:27;10.20;99.90
22194;DHT22;11262;50.308;9.270;2022-12-29T01:03:53;10.10;99.90
22194;DHT22;11262;50.308;9.270;2022-12-29T01:06:18;10.00;99.90
22194;DHT22;11262;50.308;9.270;2022-12-29T01:08:44;10.00;99.90
22194;DHT22;11262;50.308;9.270;2022-12-29T01:11:11;9.90;99.90
22194;DHT22;11262;50.308;9.270;2022-12-29T01:13:38;9.80;99.90
22194;DHT22;11262;50.308;9.270;2022-12-29T01:16:06;9.80;99.90
22194;DHT22;11262;50.308;9.270;2022-12-29T01:18:31;9.70;99.90
22194;DHT22;11262;50.308;9.270;2022-12-29T01:21:04;9.70;99.90
22194;DHT22;11262;50.308;9.270;2022-12-29T01:23:31;9.70;99.90
22194;DHT22;11262;50.308;9.270;2022-12-29T01:25:57;9.60;99.90
22194;DHT22;11262;50.308;9.270;2022-12-29T01:28:23;9.60;99.90
22194;DHT22;11262;50.308;9.270;2022-12-29T01:30:49;9.50;99.90
22194;DHT22;11262;50.308;9.270;2022-12-29T01:33:14;9.40;99.90
22194;DHT22;11262;50.308;9.270;2022-12-29T01:35:40;9.40;99.90
22194;DHT22;11262;50.308;9.270;2022-12-29T01:38:05;9.30;99.90
22194;DHT22;11262;50.308;9.270;2022-12-29T01:40:31;9.30;99.90
22194;DHT22;11262;50.308;9.270;2022-12-29T01:42:57;9.20;99.90
22194;DHT22;11262;50.308;9.270;2022-12-29T01:45:22;9.20;99.90
22194;DHT22;11262;50.308;9.270;2022-12-29T01:48:08;9.20;99.90
22194;DHT22;11262;50.308;9.270;2022-12-29T01:50:41;9.10;99.90
22194;DHT22;11262;50.308;9.270;2022-12-29T01:53:13;9.10;99.90
22194;DHT22;11262;50.308;9.270;2022-12-29T01:55:46;9.10;99.90
22194;DHT22;11262;50.308;9.270;2022-12-29T01:58:15;9.10;99.90
22194;DHT22;11262;50.308;9.270;2022-12-29T02:00:43;9.10;99.90
22194;DHT22;11262;50.308;9.270;2022-12-29T02:03:09;9.10;99.90
22194;DHT22;11262;50.308;9.270;2022-12-29T02:08:25;9.00;99.90
22194;DHT22;11262;50.308;9.270;2022-12-29T02:10:52;9.00;99.90
22194;DHT22;11262;50.308;9.270;2022-12-29T02:13:17;9.10;99.90
22194;DHT22;11262;50.308;9.270;2022-12-29T02:29:40;9.10;99.90
22194;DHT22;11262;50.308;9.270;2022-12-29T02:32:17;9.20;99.90
22194;DHT22;11262;50.308;9.270;2022-12-29T02:37:24;9.20;99.90
22194;DHT22;11262;50.308;9.270;2022-12-29T02:40:00;9.10;99.90
22194;DHT22;11262;50.308;9.270;2022-12-29T02:42:40;9.10;99.90
22194;DHT22;11262;50.308;9.270;2022-12-29T02:45:26;9.10;99.90
22194;DHT22;11262;50.308;9.270;2022-12-29T02:48:07;9.20;99.90
22194;DHT22;11262;50.308;9.270;2022-12-29T02:50:47;9.20;99.90
22194;DHT22;11262;50.308;9.270;2022-12-29T02:53:17;9.20;99.90
22194;DHT22;11262;50.308;9.270;2022-12-29T02:56:04;9.20;99.90
22194;DHT22;11262;50.308;9.270;2022-12-29T02:58:30;9.20;99.90
22194;DHT22;11262;50.308;9.270;2022-12-29T03:06:27;9.20;99.90
22194;DHT22;11262;50.308;9.270;2022-12-29T03:09:00;9.20;99.90
22194;DHT22;11262;50.308;9.270;2022-12-29T03:11:36;9.20;99.90
22194;DHT22;11262;50.308;9.270;2022-12-29T03:17:40;9.30;99.90
22194;DHT22;11262;50.308;9.270;2022-12-29T03:20:11;9.30;99.90
22194;DHT22;11262;50.308;9.270;2022-12-29T03:22:42;9.30;99.90
22194;DHT22;11262;50.308;9.270;2022-12-29T03:25:25;9.30;99.90
22194;DHT22;11262;50.308;9.270;2022-12-29T03:27:57;9.40;99.90
22194;DHT22;11262;50.308;9.270;2022-12-29T03:30:24;9.40;99.90
22194;DHT22;11262;50.308;9.270;2022-12-29T03:32:57;9.40;99.90
22194;DHT22;11262;50.308;9.270;2022-12-29T03:35:27;9.40;99.90
22194;DHT22;11262;50.308;9.270;2022-12-29T03:38:15;9.50;99.90
22194;DHT22;11262;50.308;9.270;2022-12-29T03:40:52;9.50;99.90
22194;DHT22;11262;50.308;9.270;2022-12-29T03:43:19;9.50;99.90
22194;DHT22;11262;50.308;9.270;2022-12-29T03:45:45;9.50;99.90
22194;DHT22;11262;50.308;9.270;2022-12-29T03:48:10;9.50;99.90
22194;DHT22;11262;50.308;9.270;2022-12-29T03:50:36;9.50;99.90
22194;DHT22;11262;50.308;9.270;2022-12-29T03:53:02;9.50;99.90
22194;DHT22;11262;50.308;9.270;2022-12-29T03:55:27;9.50;99.90
22194;DHT22;11262;50.308;9.270;2022-12-29T03:57:53;9.60;99.90
22194;DHT22;11262;50.308;9.270;2022-12-29T04:00:18;9.60;99.90
22194;DHT22;11262;50.308;9.270;2022-12-29T04:02:44;9.60;99.90
22194;DHT22;11262;50.308;9.270;2022-12-29T04:05:10;9.60;99.90
22194;DHT22;11262;50.308;9.270;2022-12-29T04:07:35;9.60;99.90
22194;DHT22;11262;50.308;9.270;2022-12-29T04:10:01;9.60;99.90
22194;DHT22;11262;50.308;9.270;2022-12-29T04:12:26;9.60;99.90
22194;DHT22;11262;50.308;9.270;2022-12-29T04:14:52;9.60;99.90
22194;DHT22;11262;50.308;9.270;2022-12-29T04:17:17;9.60;99.90
22194;DHT22;11262;50.308;9.270;2022-12-29T04:19:44;9.60;99.90
22194;DHT22;11262;50.308;9.270;2022-12-29T04:22:09;9.70;99.90
22194;DHT22;11262;50.308;9.270;2022-12-29T04:24:37;9.70;99.90
22194;DHT22;11262;50.308;9.270;2022-12-29T04:27:02;9.70;99.90
22194;DHT22;11262;50.308;9.270;2022-12-29T04:29:28;9.70;99.90
22194;DHT22;11262;50.308;9.270;2022-12-29T04:31:54;9.70;99.90
22194;DHT22;11262;50.308;9.270;2022-12-29T04:34:19;9.70;99.90
22194;DHT22;11262;50.308;9.270;2022-12-29T04:36:45;9.70;99.90
22194;DHT22;11262;50.308;9.270;2022-12-29T04:39:10;9.70;99.90
22194;DHT22;11262;50.308;9.270;2022-12-29T04:41:36;9.80;99.90
22194;DHT22;11262;50.308;9.270;2022-12-29T04:44:02;9.80;99.90
22194;DHT22;11262;50.308;9.270;2022-12-29T04:46:27;9.80;99.90
22194;DHT22;11262;50.308;9.270;2022-12-29T04:48:53;9.80;99.90
22194;DHT22;11262;50.308;9.270;2022-12-29T04:51:18;9.80;99.90
22194;DHT22;11262;50.308;9.270;2022-12-29T04:53:44;9.80;99.90
22194;DHT22;11262;50.308;9.270;2022-12-29T04:56:09;9.80;99.90
22194;DHT22;11262;50.308;9.270;2022-12-29T04:58:36;9.80;99.90
22194;DHT22;11262;50.308;9.270;2022-12-29T05:01:02;9.80;99.90
22194;DHT22;11262;50.308;9.270;2022-12-29T05:03:27;9.90;99.90
22194;DHT22;11262;50.308;9.270;2022-12-29T05:05:54;9.90;99.90
22194;DHT22;11262;50.308;9.270;2022-12-29T05:08:21;9.80;99.90
22194;DHT22;11262;50.308;9.270;2022-12-29T05:10:47;9.90;99.90
22194;DHT22;11262;50.308;9.270;2022-12-29T05:13:12;9.90;99.90
22194;DHT22;11262;50.308;9.270;2022-12-29T05:15:38;9.90;99.90
22194;DHT22;11262;50.308;9.270;2022-12-29T05:18:04;9.90;99.90
22194;DHT22;11262;50.308;9.270;2022-12-29T05:20:29;9.90;99.90
22194;DHT22;11262;50.308;9.270;2022-12-29T05:22:55;9.90;99.90
22194;DHT22;11262;50.308;9.270;2022-12-29T05:25:20;9.90;99.90
22194;DHT22;11262;50.308;9.270;2022-12-29T05:27:46;9.80;99.90
22194;DHT22;11262;50.308;9.270;2022-12-29T05:30:12;9.90;99.90
22194;DHT22;11262;50.308;9.270;2022-12-29T05:32:37;9.90;99.90
22194;DHT22;11262;50.308;9.270;2022-12-29T05:35:03;9.90;99.90
22194;DHT22;11262;50.308;9.270;2022-12-29T05:37:29;9.90;99.90
22194;DHT22;11262;50.308;9.270;2022-12-29T05:39:55;9.90;99.90
22194;DHT22;11262;50.308;9.270;2022-12-29T05:42:20;9.90;99.90
22194;DHT22;11262;50.308;9.270;2022-12-29T05:44:46;9.90;99.90
22194;DHT22;11262;50.308;9.270;2022-12-29T05:47:11;10.00;99.90
22194;DHT22;11262;50.308;9.270;2022-12-29T05:49:37;10.00;99.90
22194;DHT22;11262;50.308;9.270;2022-12-29T05:52:03;10.00;99.90
22194;DHT22;11262;50.308;9.270;2022-12-29T05:54:28;10.00;99.90
22194;DHT22;11262;50.308;9.270;2022-12-29T05:56:54;10.00;99.90
22194;DHT22;11262;50.308;9.270;2022-12-29T05:59:20;10.00;99.90
22194;DHT22;11262;50.308;9.270;2022-12-29T06:01:45;10.00;99.90
22194;DHT22;11262;50.308;9.270;2022-12-29T06:04:11;10.00;99.90
22194;DHT22;11262;50.308;9.270;2022-12-29T06:06:36;10.00;99.90
22194;DHT22;11262;50.308;9.270;2022-12-29T06:09:02;10.00;99.90
22194;DHT22;11262;50.308;9.270;2022-12-29T06:11:28;10.00;99.90
22194;DHT22;11262;50.308;9.270;2022-12-29T06:13:53;10.00;99.90
22194;DHT22;11262;50.308;9.270;2022-12-29T06:16:19;10.00;99.90
22194;DHT22;11262;50.308;9.270;2022-12-29T06:18:45;9.90;99.90
22194;DHT22;11262;50.308;9.270;2022-12-29T06:21:11;10.00;99.90
22194;DHT22;11262;50.308;9.270;2022-12-29T06:23:36;10.00;99.90
22194;DHT22;11262;50.308;9.270;2022-12-29T06:26:02;10.00;99.90
22194;DHT22;11262;50.308;9.270;2022-12-29T06:28:27;10.00;99.90
22194;DHT22;11262;50.308;9.270;2022-12-29T06:30:53;10.00;99.90
22194;DHT22;11262;50.308;9.270;2022-12-29T06:33:18;10.00;99.90
22194;DHT22;11262;50.308;9.270;2022-12-29T06:35:44;10.00;99.90
22194;DHT22;11262;50.308;9.270;2022-12-29T06:38:11;10.00;99.90
22194;DHT22;11262;50.308;9.270;2022-12-29T06:40:37;10.00;99.90
22194;DHT22;11262;50.308;9.270;2022-12-29T06:43:02;10.00;99.90
22194;DHT22;11262;50.308;9.270;2022-12-29T06:45:28;10.00;99.90
22194;DHT22;11262;50.308;9.270;2022-12-29T06:47:54;10.10;99.90
22194;DHT22;11262;50.308;9.270;2022-12-29T06:50:19;10.10;99.90
22194;DHT22;11262;50.308;9.270;2022-12-29T06:52:45;10.10;99.90
22194;DHT22;11262;50.308;9.270;2022-12-29T06:55:10;10.10;99.90
22194;DHT22;11262;50.308;9.270;2022-12-29T06:57:36;10.20;99.90
22194;DHT22;11262;50.308;9.270;2022-12-29T07:00:03;10.30;99.90
22194;DHT22;11262;50.308;9.270;2022-12-29T07:02:30;10.20;99.90
22194;DHT22;11262;50.308;9.270;2022-12-29T07:04:55;10.30;99.90
22194;DHT22;11262;50.308;9.270;2022-12-29T07:07:21;10.30;99.90
22194;DHT22;11262;50.308;9.270;2022-12-29T07:09:47;10.30;99.90
22194;DHT22;11262;50.308;9.270;2022-12-29T07:12:12;10.30;99.90
22194;DHT22;11262;50.308;9.270;2022-12-29T07:14:38;10.40;99.90
22194;DHT22;11262;50.308;9.270;2022-12-29T07:17:04;10.30;99.90
22194;DHT22;11262;50.308;9.270;2022-12-29T07:19:32;10.40;99.90
22194;DHT22;11262;50.308;9.270;2022-12-29T07:21:57;10.40;99.90
22194;DHT22;11262;50.308;9.270;2022-12-29T07:24:23;10.40;99.90
22194;DHT22;11262;50.308;9.270;2022-12-29T07:26:51;10.30;99.90
22194;DHT22;11262;50.308;9.270;2022-12-29T07:29:16;10.30;99.90
22194;DHT22;11262;50.308;9.270;2022-12-29T07:31:42;10.30;99.90
22194;DHT22;11262;50.308;9.270;2022-12-29T07:34:08;10.30;99.90
22194;DHT22;11262;50.308;9.270;2022-12-29T07:36:34;10.30;99.90
22194;DHT22;11262;50.308;9.270;2022-12-29T07:38:59;10.30;99.90
22194;DHT22;11262;50.308;9.270;2022-12-29T07:41:25;10.20;99.90
22194;DHT22;11262;50.308;9.270;2022-12-29T07:43:50;10.30;99.90
22194;DHT22;11262;50.308;9.270;2022-12-29T07:46:16;10.30;99.90
22194;DHT22;11262;50.308;9.270;2022-12-29T07:48:42;10.30;99.90
22194;DHT22;11262;50.308;9.270;2022-12-29T07:51:07;10.30;99.90
22194;DHT22;11262;50.308;9.270;2022-12-29T07:53:33;10.30;99.90
22194;DHT22;11262;50.308;9.270;2022-12-29T07:55:58;10.30;99.90
22194;DHT22;11262;50.308;9.270;2022-12-29T07:58:24;10.30;99.90
22194;DHT22;11262;50.308;9.270;2022-12-29T08:00:53;10.30;99.90
22194;DHT22;11262;50.308;9.270;2022-12-29T08:03:19;10.30;99.90
22194;DHT22;11262;50.308;9.270;2022-12-29T08:05:45;10.30;99.90
22194;DHT22;11262;50.308;9.270;2022-12-29T08:08:10;10.20;99.90
22194;DHT22;11262;50.308;9.270;2022-12-29T08:10:36;10.30;99.90
22194;DHT22;11262;50.308;9.270;2022-12-29T08:13:01;10.20;99.90
22194;DHT22;11262;50.308;9.270;2022-12-29T08:15:27;10.20;99.90
22194;DHT22;11262;50.308;9.270;2022-12-29T08:17:52;10.20;99.90
22194;DHT22;11262;50.308;9.270;2022-12-29T08:20:18;10.20;99.90
22194;DHT22;11262;50.308;9.270;2022-12-29T08:22:44;10.20;99.90
22194;DHT22;11262;50.308;9.270;2022-12-29T08:25:09;10.20;99.90
22194;DHT22;11262;50.308;9.270;2022-12-29T08:27:35;10.20;99.90
22194;DHT22;11262;50.308;9.270;2022-12-29T08:30:01;10.20;99.90
22194;DHT22;11262;50.308;9.270;2022-12-29T08:32:27;10.20;99.90
22194;DHT22;11262;50.308;9.270;2022-12-29T08:34:54;10.20;99.90
22194;DHT22;11262;50.308;9.270;2022-12-29T08:37:19;10.20;99.90
22194;DHT22;11262;50.308;9.270;2022-12-29T08:39:45;10.20;99.90
22194;DHT22;11262;50.308;9.270;2022-12-29T08:42:11;10.20;99.90
22194;DHT22;11262;50.308;9.270;2022-12-29T08:44:36;10.20;99.90
22194;DHT22;11262;50.308;9.270;2022-12-29T08:47:02;10.20;99.90
22194;DHT22;11262;50.308;9.270;2022-12-29T08:49:27;10.20;99.90
22194;DHT22;11262;50.308;9.270;2022-12-29T08:51:53;10.20;99.90
22194;DHT22;11262;50.308;9.270;2022-12-29T08:54:19;10.20;99.90
22194;DHT22;11262;50.308;9.270;2022-12-29T08:56:44;10.20;99.90
22194;DHT22;11262;50.308;9.270;2022-12-29T08:59:10;10.20;99.90
22194;DHT22;11262;50.308;9.270;2022-12-29T09:01:36;10.20;99.90
22194;DHT22;11262;50.308;9.270;2022-12-29T09:04:05;10.30;99.90
22194;DHT22;11262;50.308;9.270;2022-12-29T09:06:31;10.30;99.90
22194;DHT22;11262;50.308;9.270;2022-12-29T09:08:57;10.30;99.90
22194;DHT22;11262;50.308;9.270;2022-12-29T09:11:24;10.30;99.90
22194;DHT22;11262;50.308;9.270;2022-12-29T09:13:49;10.30;99.90
22194;DHT22;11262;50.308;9.270;2022-12-29T09:16:16;10.40;99.90
22194;DHT22;11262;50.308;9.270;2022-12-29T09:18:43;10.40;99.90
22194;DHT22;11262;50.308;9.270;2022-12-29T09:21:10;10.40;99.90
22194;DHT22;11262;50.308;9.270;2022-12-29T09:23:36;10.40;99.90
22194;DHT22;11262;50.308;9.270;2022-12-29T09:26:02;10.40;99.90
22194;DHT22;11262;50.308;9.270;2022-12-29T09:28:28;10.40;99.90
22194;DHT22;11262;50.308;9.270;2022-12-29T09:30:55;10.40;99.90
22194;DHT22;11262;50.308;9.270;2022-12-29T09:33:21;10.40;99.90
22194;DHT22;11262;50.308;9.270;2022-12-29T09:36:00;10.40;99.90
22194;DHT22;11262;50.308;9.270;2022-12-29T09:38:27;10.30;99.90
22194;DHT22;11262;50.308;9.270;2022-12-29T09:51:34;10.10;99.90
22194;DHT22;11262;50.308;9.270;2022-12-29T09:54:33;10.10;99.90
22194;DHT22;11262;50.308;9.270;2022-12-29T09:56:55;10.00;99.90
22194;DHT22;11262;50.308;9.270;2022-12-29T09:59:27;9.90;99.90
22194;DHT22;11262;50.308;9.270;2022-12-29T10:04:37;9.90;99.90
22194;DHT22;11262;50.308;9.270;2022-12-29T10:07:12;9.90;99.90
22194;DHT22;11262;50.308;9.270;2022-12-29T10:15:14;10.00;99.90
22194;DHT22;11262;50.308;9.270;2022-12-29T10:17:53;9.90;99.90
22194;DHT22;11262;50.308;9.270;2022-12-29T10:23:38;9.80;99.90
22194;DHT22;11262;50.308;9.270;2022-12-29T10:26:33;9.70;99.90
22194;DHT22;11262;50.308;9.270;2022-12-29T10:28:57;9.60;99.90
22194;DHT22;11262;50.308;9.270;2022-12-29T10:31:33;9.60;99.90
22194;DHT22;11262;50.308;9.270;2022-12-29T10:34:05;9.60;99.90
22194;DHT22;11262;50.308;9.270;2022-12-29T10:36:58;9.60;99.90
22194;DHT22;11262;50.308;9.270;2022-12-29T10:39:37;9.60;99.90
22194;DHT22;11262;50.308;9.270;2022-12-29T10:45:24;9.50;99.90
22194;DHT22;11262;50.308;9.270;2022-12-29T10:48:02;9.50;99.90
22194;DHT22;11262;50.308;9.270;2022-12-29T10:50:30;9.50;99.90
22194;DHT22;11262;50.308;9.270;2022-12-29T10:52:59;9.40;99.90
22194;DHT22;11262;50.308;9.270;2022-12-29T10:55:32;9.40;99.90
22194;DHT22;11262;50.308;9.270;2022-12-29T10:58:02;9.30;99.90
22194;DHT22;11262;50.308;9.270;2022-12-29T11:00:31;9.30;99.90
22194;DHT22;11262;50.308;9.270;2022-12-29T11:08:35;9.20;99.90
22194;DHT22;11262;50.308;9.270;2022-12-29T11:11:10;9.20;99.90
22194;DHT22;11262;50.308;9.270;2022-12-29T11:13:55;9.10;99.90
22194;DHT22;11262;50.308;9.270;2022-12-29T11:16:30;9.20;99.90
22194;DHT22;11262;50.308;9.270;2022-12-29T11:19:00;9.10;99.90
22194;DHT22;11262;50.308;9.270;2022-12-29T11:21:37;9.20;99.90
22194;DHT22;11262;50.308;9.270;2022-12-29T11:24:24;9.20;99.90
22194;DHT22;11262;50.308;9.270;2022-12-29T11:26:53;9.20;99.90
22194;DHT22;11262;50.308;9.270;2022-12-29T11:29:36;9.30;99.90
22194;DHT22;11262;50.308;9.270;2022-12-29T11:32:20;9.30;99.90
22194;DHT22;11262;50.308;9.270;2022-12-29T11:34:47;9.30;99.90
22194;DHT22;11262;50.308;9.270;2022-12-29T11:39:58;9.40;99.90
22194;DHT22;11262;50.308;9.270;2022-12-29T11:45:21;9.40;99.90
22194;DHT22;11262;50.308;9.270;2022-12-29T11:47:49;9.40;99.90
22194;DHT22;11262;50.308;9.270;2022-12-29T11:50:18;9.50;99.90
22194;DHT22;11262;50.308;9.270;2022-12-29T11:52:46;9.60;99.90
22194;DHT22;11262;50.308;9.270;2022-12-29T11:55:21;9.70;99.90
22194;DHT22;11262;50.308;9.270;2022-12-29T11:57:50;9.80;99.90
22194;DHT22;11262;50.308;9.270;2022-12-29T12:00:22;9.90;99.90
22194;DHT22;11262;50.308;9.270;2022-12-29T12:03:17;9.80;99.90
22194;DHT22;11262;50.308;9.270;2022-12-29T12:05:47;9.80;99.90
22194;DHT22;11262;50.308;9.270;2022-12-29T12:08:42;9.80;99.90
22194;DHT22;11262;50.308;9.270;2022-12-29T12:11:16;9.80;99.90
22194;DHT22;11262;50.308;9.270;2022-12-29T12:17:01;9.80;99.90
22194;DHT22;11262;50.308;9.270;2022-12-29T12:19:47;9.90;99.90
22194;DHT22;11262;50.308;9.270;2022-12-29T12:22:33;10.00;99.90
22194;DHT22;11262;50.308;9.270;2022-12-29T12:30:17;10.10;99.90
22194;DHT22;11262;50.308;9.270;2022-12-29T12:36:26;10.20;99.90
22194;DHT22;11262;50.308;9.270;2022-12-29T12:41:12;10.40;99.90
22194;DHT22;11262;50.308;9.270;2022-12-29T12:43:51;10.80;99.90
22194;DHT22;11262;50.308;9.270;2022-12-29T12:57:52;10.70;99.90
22194;DHT22;11262;50.308;9.270;2022-12-29T13:00:21;10.50;99.90
22194;DHT22;11262;50.308;9.270;2022-12-29T13:18:53;10.90;99.90
22194;DHT22;11262;50.308;9.270;2022-12-29T13:26:57;10.60;99.90
22194;DHT22;11262;50.308;9.270;2022-12-29T13:29:36;10.50;99.90
22194;DHT22;11262;50.308;9.270;2022-12-29T13:37:27;10.50;99.90
22194;DHT22;11262;50.308;9.270;2022-12-29T13:40:02;10.50;99.90
22194;DHT22;11262;50.308;9.270;2022-12-29T13:42:29;10.40;99.90
22194;DHT22;11262;50.308;9.270;2022-12-29T13:45:05;10.30;99.90
22194;DHT22;11262;50.308;9.270;2022-12-29T13:47:42;10.20;99.90
22194;DHT22;11262;50.308;9.270;2022-12-29T13:50:18;10.20;99.90
22194;DHT22;11262;50.308;9.270;2022-12-29T13:52:51;10.10;99.90
22194;DHT22;11262;50.308;9.270;2022-12-29T13:55:32;10.10;99.90
22194;DHT22;11262;50.308;9.270;2022-12-29T14:03:53;10.10;99.90
22194;DHT22;11262;50.308;9.270;2022-12-29T14:08:59;10.10;99.90
22194;DHT22;11262;50.308;9.270;2022-12-29T14:11:36;10.10;99.90
22194;DHT22;11262;50.308;9.270;2022-12-29T14:14:20;10.00;99.90
22194;DHT22;11262;50.308;9.270;2022-12-29T14:16:46;9.90;99.90
22194;DHT22;11262;50.308;9.270;2022-12-29T14:19:51;10.00;99.90
22194;DHT22;11262;50.308;9.270;2022-12-29T14:22:10;10.00;99.90
22194;DHT22;11262;50.308;9.270;2022-12-29T14:24:45;10.00;99.90
22194;DHT22;11262;50.308;9.270;2022-12-29T14:34:53;10.00;99.90
22194;DHT22;11262;50.308;9.270;2022-12-29T14:39:49;9.90;99.90
22194;DHT22;11262;50.308;9.270;2022-12-29T14:42:19;9.90;99.90
22194;DHT22;11262;50.308;9.270;2022-12-29T14:44:55;10.20;99.90
22194;DHT22;11262;50.308;9.270;2022-12-29T14:50:03;10.40;99.90
22194;DHT22;11262;50.308;9.270;2022-12-29T14:52:31;10.30;99.90
22194;DHT22;11262;50.308;9.270;2022-12-29T14:57:38;10.10;99.90
22194;DHT22;11262;50.308;9.270;2022-12-29T15:00:19;10.00;99.90
22194;DHT22;11262;50.308;9.270;2022-12-29T15:02:53;9.90;99.90
22194;DHT22;11262;50.308;9.270;2022-12-29T15:05:34;9.80;99.90
22194;DHT22;11262;50.308;9.270;2022-12-29T15:08:03;9.80;99.90
22194;DHT22;11262;50.308;9.270;2022-12-29T15:10:36;9.80;99.90
22194;DHT22;11262;50.308;9.270;2022-12-29T15:13:05;9.80;99.90
22194;DHT22;11262;50.308;9.270;2022-12-29T15:15:37;9.70;99.90
22194;DHT22;11262;50.308;9.270;2022-12-29T15:18:27;9.70;99.90
22194;DHT22;11262;50.308;9.270;2022-12-29T15:20:59;9.70;99.90
22194;DHT22;11262;50.308;9.270;2022-12-29T15:23:25;9.60;99.90
22194;DHT22;11262;50.308;9.270;2022-12-29T15:26:05;9.50;99.90
22194;DHT22;11262;50.308;9.270;2022-12-29T15:28:57;9.50;99.90
22194;DHT22;11262;50.308;9.270;2022-12-29T15:31:25;9.50;99.90
22194;DHT22;11262;50.308;9.270;2022-12-29T15:33:54;9.50;99.90
22194;DHT22;11262;50.308;9.270;2022-12-29T15:36:28;9.50;99.90
22194;DHT22;11262;50.308;9.270;2022-12-29T15:38:54;9.50;99.90
22194;DHT22;11262;50.308;9.270;2022-12-29T15:41:42;9.50;99.90
22194;DHT22;11262;50.308;9.270;2022-12-29T15:44:34;9.40;99.90
22194;DHT22;11262;50.308;9.270;2022-12-29T15:47:08;9.40;99.90
22194;DHT22;11262;50.308;9.270;2022-12-29T15:49:37;9.40;99.90
22194;DHT22;11262;50.308;9.270;2022-12-29T15:52:07;9.40;99.90
22194;DHT22;11262;50.308;9.270;2022-12-29T15:54:33;9.30;99.90
22194;DHT22;11262;50.308;9.270;2022-12-29T15:56:59;9.30;99.90
22194;DHT22;11262;50.308;9.270;2022-12-29T15:59:31;9.30;99.90
22194;DHT22;11262;50.308;9.270;2022-12-29T16:01:59;9.20;99.90
22194;DHT22;11262;50.308;9.270;2022-12-29T16:04:28;9.20;99.90
22194;DHT22;11262;50.308;9.270;2022-12-29T16:07:03;9.20;99.90
22194;DHT22;11262;50.308;9.270;2022-12-29T16:09:42;9.20;99.90
22194;DHT22;11262;50.308;9.270;2022-12-29T16:12:20;9.20;99.90
22194;DHT22;11262;50.308;9.270;2022-12-29T16:14:48;9.20;99.90
22194;DHT22;11262;50.308;9.270;2022-12-29T16:17:19;9.10;99.90
22194;DHT22;11262;50.308;9.270;2022-12-29T16:19:52;9.20;99.90
22194;DHT22;11262;50.308;9.270;2022-12-29T16:24:59;9.20;99.90
22194;DHT22;11262;50.308;9.270;2022-12-29T16:27:33;9.10;99.90
22194;DHT22;11262;50.308;9.270;2022-12-29T16:30:16;9.20;99.90
22194;DHT22;11262;50.308;9.270;2022-12-29T16:32:46;9.20;99.90
22194;DHT22;11262;50.308;9.270;2022-12-29T16:35:17;9.10;99.90
22194;DHT22;11262;50.308;9.270;2022-12-29T16:37:43;9.10;99.90
22194;DHT22;11262;50.308;9.270;2022-12-29T16:40:26;9.20;99.90
22194;DHT22;11262;50.308;9.270;2022-12-29T16:43:00;9.10;99.90
22194;DHT22;11262;50.308;9.270;2022-12-29T16:50:42;9.00;99.90
22194;DHT22;11262;50.308;9.270;2022-12-29T16:53:27;9.00;99.90
22194;DHT22;11262;50.308;9.270;2022-12-29T16:55:54;8.90;99.90
22194;DHT22;11262;50.308;9.270;2022-12-29T16:58:23;8.90;99.90
22194;DHT22;11262;50.308;9.270;2022-12-29T17:00:49;8.80;99.90
22194;DHT22;11262;50.308;9.270;2022-12-29T17:03:17;8.80;99.90
22194;DHT22;11262;50.308;9.270;2022-12-29T17:05:43;8.80;99.90
22194;DHT22;11262;50.308;9.270;2022-12-29T17:08:18;8.70;99.90
22194;DHT22;11262;50.308;9.270;2022-12-29T17:10:51;8.70;99.90
22194;DHT22;11262;50.308;9.270;2022-12-29T17:13:37;8.70;99.90
22194;DHT22;11262;50.308;9.270;2022-12-29T17:16:04;8.70;99.90
22194;DHT22;11262;50.308;9.270;2022-12-29T17:18:32;8.60;99.90
22194;DHT22;11262;50.308;9.270;2022-12-29T17:20:57;8.60;99.90
22194;DHT22;11262;50.308;9.270;2022-12-29T17:23:23;8.60;99.90
22194;DHT22;11262;50.308;9.270;2022-12-29T17:25:49;8.50;99.90
22194;DHT22;11262;50.308;9.270;2022-12-29T17:28:21;8.50;99.90
22194;DHT22;11262;50.308;9.270;2022-12-29T17:30:48;8.50;99.90
22194;DHT22;11262;50.308;9.270;2022-12-29T17:33:16;8.50;99.90
22194;DHT22;11262;50.308;9.270;2022-12-29T17:35:42;8.40;99.90
22194;DHT22;11262;50.308;9.270;2022-12-29T17:38:33;8.40;99.90
22194;DHT22;11262;50.308;9.270;2022-12-29T17:40:59;8.40;99.90
22194;DHT22;11262;50.308;9.270;2022-12-29T17:43:25;8.40;99.90
22194;DHT22;11262;50.308;9.270;2022-12-29T17:46:00;8.40;99.90
22194;DHT22;11262;50.308;9.270;2022-12-29T17:48:25;8.30;99.90
22194;DHT22;11262;50.308;9.270;2022-12-29T17:50:52;8.30;99.90
22194;DHT22;11262;50.308;9.270;2022-12-29T17:53:23;8.30;99.90
22194;DHT22;11262;50.308;9.270;2022-12-29T17:55:50;8.30;99.90
22194;DHT22;11262;50.308;9.270;2022-12-29T17:58:21;8.30;99.90
22194;DHT22;11262;50.308;9.270;2022-12-29T18:00:51;8.30;99.90
22194;DHT22;11262;50.308;9.270;2022-12-29T18:03:20;8.20;99.90
22194;DHT22;11262;50.308;9.270;2022-12-29T18:05:46;8.20;99.90
22194;DHT22;11262;50.308;9.270;2022-12-29T18:08:11;8.20;99.90
22194;DHT22;11262;50.308;9.270;2022-12-29T18:10:37;8.20;99.90
22194;DHT22;11262;50.308;9.270;2022-12-29T18:13:03;8.20;99.90
22194;DHT22;11262;50.308;9.270;2022-12-29T18:15:32;8.20;99.90
22194;DHT22;11262;50.308;9.270;2022-12-29T18:18:00;8.10;99.90
22194;DHT22;11262;50.308;9.270;2022-12-29T18:20:29;8.10;99.90
22194;DHT22;11262;50.308;9.270;2022-12-29T18:22:55;8.10;99.90
22194;DHT22;11262;50.308;9.270;2022-12-29T18:27:51;8.10;99.90
22194;DHT22;11262;50.308;9.270;2022-12-29T18:30:17;8.10;99.90
22194;DHT22;11262;50.308;9.270;2022-12-29T18:32:43;8.10;99.90